Time;durP1;ratioP1;P1;durP2;ratioP2;P2;SDS_P1;SDS_P2;PMS_P1;PMS_P2;Temp;Humidity;BMP_temperature;BMP_pressure;BME280_temperature;BME280_humidity;BME280_pressure;Samples;Min_cycle;Max_cycle;Signal;HPM_P1;HPM_P2
2022/12/29 00:01:55;;;;;;;226.40;212.57;;;9.80;99.90;;;;;;5010489;28;20045;-76
2022/12/29 00:04:21;;;;;;;52.27;49.23;;;9.90;99.90;;;;;;5008449;28;20046;-76
2022/12/29 00:06:47;;;;;;;72.83;68.87;;;9.80;99.90;;;;;;4978159;28;20054;-76
2022/12/29 00:09:13;;;;;;;102.07;96.67;;;9.70;99.90;;;;;;5008579;28;20519;-76
2022/12/29 00:11:39;;;;;;;141.07;132.33;;;9.70;99.90;;;;;;5008916;28;20050;-76
2022/12/29 00:16:49;;;;;;;124.23;116.70;;;9.90;99.90;;;;;;5011419;28;20411;-75
2022/12/29 00:36:10;;;;;;;58.20;55.10;;;10.10;99.90;;;;;;5008671;28;20060;-76
2022/12/29 00:44:11;;;;;;;95.37;90.50;;;10.10;99.90;;;;;;5008740;28;20095;-76
2022/12/29 00:46:38;;;;;;;117.60;111.43;;;10.20;99.90;;;;;;4995567;28;20460;-76
2022/12/29 00:51:50;;;;;;;72.07;67.80;;;10.20;99.90;;;;;;5009742;28;20065;-76
2022/12/29 00:54:16;;;;;;;18.73;17.23;;;10.20;99.90;;;;;;5008462;28;20060;-76
2022/12/29 00:56:42;;;;;;;47.43;44.77;;;10.30;99.90;;;;;;4995482;28;20042;-75
2022/12/29 00:59:10;;;;;;;34.37;32.37;;;10.30;99.90;;;;;;5006815;28;20108;-75
2022/12/29 01:01:37;;;;;;;102.47;96.57;;;10.30;99.90;;;;;;5008819;28;20077;-76
2022/12/29 01:04:03;;;;;;;41.80;39.47;;;10.30;99.90;;;;;;5008342;28;20369;-76
2022/12/29 01:06:29;;;;;;;62.40;59.13;;;10.30;99.90;;;;;;4997588;28;20367;-75
2022/12/29 01:11:40;;;;;;;36.77;34.90;;;10.20;99.90;;;;;;4990228;28;20096;-76
2022/12/29 01:14:06;;;;;;;48.20;45.73;;;10.30;99.90;;;;;;4972127;28;20153;-76
2022/12/29 01:16:33;;;;;;;59.17;56.17;;;10.30;99.90;;;;;;4957212;28;20489;-76
2022/12/29 01:18:59;;;;;;;54.13;51.37;;;10.30;99.90;;;;;;4967396;28;20081;-76
2022/12/29 01:21:25;;;;;;;35.47;33.57;;;10.30;99.90;;;;;;4984895;28;20082;-76
2022/12/29 01:23:50;;;;;;;45.03;42.63;;;10.30;99.90;;;;;;4987097;28;20050;-76
2022/12/29 01:26:17;;;;;;;131.27;120.63;;;10.30;99.90;;;;;;4979338;28;20053;-76
2022/12/29 01:28:43;;;;;;;145.93;137.87;;;10.20;99.90;;;;;;4997146;28;20046;-76
2022/12/29 01:31:10;;;;;;;27.87;26.33;;;10.30;99.90;;;;;;5009918;28;20096;-76
2022/12/29 01:33:35;;;;;;;71.20;67.37;;;10.20;99.90;;;;;;4990457;28;20045;-76
2022/12/29 01:36:03;;;;;;;34.60;32.63;;;10.20;99.90;;;;;;5011908;28;20404;-75
2022/12/29 01:38:28;;;;;;;149.17;141.43;;;10.20;99.90;;;;;;4997560;28;20046;-75
2022/12/29 01:40:54;;;;;;;56.63;53.33;;;10.20;99.90;;;;;;5012603;28;20042;-76
2022/12/29 01:43:20;;;;;;;24.67;23.23;;;10.20;99.90;;;;;;5011975;28;20459;-76
2022/12/29 01:45:50;;;;;;;29.13;27.33;;;10.20;99.90;;;;;;5012387;28;20151;-75
2022/12/29 01:48:17;;;;;;;31.70;29.87;;;10.20;99.90;;;;;;4993460;28;20054;-75
2022/12/29 01:51:00;;;;;;;47.70;44.70;;;10.10;99.90;;;;;;5012348;28;20339;-75
2022/12/29 01:53:32;;;;;;;38.43;36.33;;;10.00;99.90;;;;;;5014630;28;20080;-75
2022/12/29 01:56:04;;;;;;;33.33;31.13;;;10.00;99.90;;;;;;5031109;28;20131;-76
2022/12/29 01:58:35;;;;;;;45.87;43.33;;;10.00;99.90;;;;;;5016295;28;20071;-76
2022/12/29 02:01:02;;;;;;;81.78;77.15;;;9.90;99.90;;;;;;5031995;28;20121;-76
2022/12/29 02:03:30;;;;;;;29.80;28.00;;;9.90;99.90;;;;;;5031304;28;20049;-75
2022/12/29 02:06:08;;;;;;;100.80;95.40;;;10.00;99.90;;;;;;5030345;28;20053;-75
2022/12/29 02:08:34;;;;;;;59.37;55.97;;;10.00;99.90;;;;;;5020110;28;20053;-75
2022/12/29 02:11:00;;;;;;;33.27;30.90;;;9.90;99.90;;;;;;5016645;28;20053;-75
2022/12/29 02:13:30;;;;;;;30.93;28.60;;;9.80;99.90;;;;;;4982875;28;20413;-76
2022/12/29 02:16:31;;;;;;;44.80;42.00;;;9.80;99.90;;;;;;4991957;28;20405;-76
2022/12/29 02:19:06;;;;;;;80.88;76.10;;;9.70;99.90;;;;;;4989655;28;20051;-75
2022/12/29 02:22:03;;;;;;;68.03;64.23;;;9.60;99.90;;;;;;4992580;28;20054;-75
2022/12/29 02:24:28;;;;;;;58.87;55.30;;;9.60;99.90;;;;;;4991588;28;20050;-76
2022/12/29 02:27:18;;;;;;;40.47;37.73;;;9.60;99.90;;;;;;4976450;28;20481;-75
2022/12/29 02:30:16;;;;;;;62.10;58.63;;;9.60;99.90;;;;;;4991620;28;20078;-76
2022/12/29 02:32:45;;;;;;;49.83;46.77;;;9.60;99.90;;;;;;4972615;28;20077;-75
2022/12/29 02:35:37;;;;;;;42.87;40.07;;;9.60;99.90;;;;;;5008176;28;20108;-75
2022/12/29 02:38:15;;;;;;;52.00;49.03;;;9.60;99.90;;;;;;4976637;28;20382;-75
2022/12/29 02:40:59;;;;;;;45.67;42.60;;;9.60;99.90;;;;;;4991553;28;20051;-75
2022/12/29 02:43:37;;;;;;;38.10;35.37;;;9.50;99.90;;;;;;4989761;28;20053;-76
2022/12/29 02:46:19;;;;;;;42.20;39.63;;;9.60;99.90;;;;;;5023109;28;20046;-75
2022/12/29 02:48:55;;;;;;;;;;;9.60;99.90;;;;;;4986389;28;20070;-75
2022/12/29 02:51:27;;;;;;;42.63;40.10;;;9.60;99.90;;;;;;4990885;28;19925;-75
2022/12/29 02:56:39;;;;;;;36.03;33.67;;;9.60;99.90;;;;;;4978194;28;20046;-75
2022/12/29 02:59:05;;;;;;;61.30;57.97;;;9.60;99.90;;;;;;5020973;28;20054;-76
2022/12/29 03:02:16;;;;;;;110.00;104.30;;;9.70;99.90;;;;;;4973737;28;20057;-75
2022/12/29 03:04:47;;;;;;;53.10;50.37;;;9.80;99.90;;;;;;4990419;28;20058;-75
2022/12/29 03:07:23;;;;;;;259.53;242.07;;;9.80;99.90;;;;;;4975512;28;20051;-76
2022/12/29 03:10:22;;;;;;;21.40;20.30;;;9.80;99.90;;;;;;5012584;28;20051;-78
2022/12/29 03:16:31;;;;;;;188.80;176.80;;;10.00;99.90;;;;;;4972256;28;20153;-76
2022/12/29 03:19:22;;;;;;;48.90;46.00;;;10.00;99.90;;;;;;4988666;28;20071;-75
2022/12/29 03:24:41;;;;;;;74.10;69.70;;;10.00;99.90;;;;;;5013396;28;20568;-76
2022/12/29 03:27:12;;;;;;;366.00;336.97;;;10.00;99.90;;;;;;4955195;28;20047;-76
2022/12/29 03:29:44;;;;;;;66.88;62.92;;;10.20;99.90;;;;;;5002555;28;20444;-76
2022/12/29 03:32:12;;;;;;;65.03;60.93;;;10.10;99.90;;;;;;5021420;28;20057;-77
2022/12/29 03:34:39;;;;;;;49.07;45.90;;;10.00;99.90;;;;;;4987243;28;20427;-76
2022/12/29 03:37:11;;;;;;;115.70;108.07;;;10.00;99.90;;;;;;4974797;28;20113;-76
2022/12/29 03:39:37;;;;;;;25.83;24.17;;;9.90;99.90;;;;;;4989911;28;20042;-76
2022/12/29 03:42:08;;;;;;;97.67;92.40;;;9.90;99.90;;;;;;4990135;28;20038;-74
2022/12/29 03:44:40;;;;;;;18.27;17.15;;;9.80;99.90;;;;;;5008939;28;20480;-76
2022/12/29 03:47:07;;;;;;;11.90;10.93;;;9.80;99.90;;;;;;4992260;28;20045;-76
2022/12/29 03:49:33;;;;;;;69.03;64.67;;;9.70;99.90;;;;;;4989924;28;20054;-76
2022/12/29 03:51:59;;;;;;;106.27;99.93;;;9.70;99.90;;;;;;4990216;28;20399;-76
2022/12/29 03:54:25;;;;;;;21.17;19.87;;;9.80;99.90;;;;;;4990340;28;20137;-76
2022/12/29 03:56:50;;;;;;;16.80;15.70;;;9.70;99.90;;;;;;4973367;28;20058;-76
2022/12/29 03:59:16;;;;;;;35.67;33.70;;;9.60;99.90;;;;;;4988025;28;20061;-76
2022/12/29 04:01:42;;;;;;;83.57;79.00;;;9.60;99.90;;;;;;5005722;28;20057;-76
2022/12/29 04:04:08;;;;;;;98.00;91.73;;;9.60;99.90;;;;;;4988363;28;20054;-75
2022/12/29 04:06:34;;;;;;;56.03;52.67;;;9.60;99.90;;;;;;4976704;28;20628;-76
2022/12/29 04:09:00;;;;;;;21.37;20.07;;;9.60;99.90;;;;;;4986409;28;20046;-76
2022/12/29 04:11:25;;;;;;;76.63;72.47;;;9.60;99.90;;;;;;4989956;28;20058;-76
2022/12/29 04:13:52;;;;;;;39.07;36.53;;;9.60;99.90;;;;;;4989556;28;20062;-76
2022/12/29 04:16:17;;;;;;;37.00;34.73;;;9.60;99.90;;;;;;4979499;28;20101;-76
2022/12/29 04:18:43;;;;;;;36.70;34.33;;;9.70;99.90;;;;;;4983645;28;20046;-76
2022/12/29 04:21:09;;;;;;;79.40;74.87;;;9.70;99.90;;;;;;4990453;28;20050;-75
2022/12/29 04:23:37;;;;;;;27.03;25.47;;;9.80;99.90;;;;;;4987889;28;20427;-77
2022/12/29 04:26:06;;;;;;;104.80;98.40;;;9.70;99.90;;;;;;4990539;28;20046;-76
2022/12/29 04:28:33;;;;;;;51.57;48.57;;;9.80;99.90;;;;;;4977483;28;20046;-76
2022/12/29 04:30:59;;;;;;;37.50;35.20;;;9.90;99.90;;;;;;4990698;28;20085;-76
2022/12/29 04:33:25;;;;;;;32.80;30.67;;;9.80;99.90;;;;;;4988100;28;20039;-77
2022/12/29 04:35:53;;;;;;;57.23;54.00;;;9.80;99.90;;;;;;4990297;28;20054;-76
2022/12/29 04:38:20;;;;;;;416.73;379.40;;;9.70;99.90;;;;;;4973885;28;20523;-76
2022/12/29 04:40:46;;;;;;;222.93;206.20;;;9.80;99.90;;;;;;4990726;28;20377;-77
2022/12/29 04:43:13;;;;;;;21.80;19.97;;;9.80;99.90;;;;;;4989151;28;20046;-76
2022/12/29 04:45:43;;;;;;;280.60;260.00;;;9.70;99.90;;;;;;4990633;28;20046;-76
2022/12/29 04:48:08;;;;;;;244.57;224.87;;;9.60;99.90;;;;;;4955615;28;20058;-76
2022/12/29 04:50:34;;;;;;;43.80;40.40;;;9.60;99.90;;;;;;4989981;28;20051;-75
2022/12/29 04:53:00;;;;;;;24.30;22.23;;;9.60;99.90;;;;;;4988923;28;20097;-76
2022/12/29 04:55:26;;;;;;;34.80;32.40;;;9.40;99.90;;;;;;4990452;28;20482;-76
2022/12/29 04:57:52;;;;;;;61.87;57.70;;;9.30;99.90;;;;;;4973291;28;20072;-76
2022/12/29 05:00:18;;;;;;;112.40;104.97;;;9.30;99.90;;;;;;4990239;28;20046;-76
2022/12/29 05:02:44;;;;;;;65.90;61.60;;;9.30;99.90;;;;;;4988190;28;20381;-76
2022/12/29 05:05:10;;;;;;;49.60;46.17;;;9.20;99.90;;;;;;4981733;28;20059;-76
2022/12/29 05:07:36;;;;;;;61.43;57.03;;;9.20;99.90;;;;;;4952948;28;20127;-75
2022/12/29 05:10:02;;;;;;;37.83;34.93;;;9.10;99.90;;;;;;4975678;28;20050;-76
2022/12/29 05:12:31;;;;;;;23.10;21.33;;;9.10;99.90;;;;;;4992562;28;20038;-76
2022/12/29 05:14:57;;;;;;;105.70;97.60;;;9.00;99.90;;;;;;4992998;28;20046;-76
2022/12/29 05:17:23;;;;;;;63.73;58.50;;;9.10;99.90;;;;;;4977431;28;20053;-76
2022/12/29 05:19:48;;;;;;;26.40;24.07;;;9.10;99.90;;;;;;4993710;28;20042;-76
2022/12/29 05:22:14;;;;;;;23.27;20.80;;;9.10;99.90;;;;;;4975119;28;20049;-76
2022/12/29 05:24:40;;;;;;;20.03;18.03;;;9.00;99.90;;;;;;4993394;28;20101;-76
2022/12/29 05:27:05;;;;;;;208.73;192.10;;;9.10;99.90;;;;;;4976995;28;20046;-76
2022/12/29 05:29:31;;;;;;;34.73;31.87;;;9.10;99.90;;;;;;4992718;28;20101;-76
2022/12/29 05:31:57;;;;;;;91.60;83.97;;;9.00;99.90;;;;;;4993145;28;20050;-76
2022/12/29 05:34:22;;;;;;;24.43;16.87;;;9.00;99.90;;;;;;4975197;28;20050;-76
2022/12/29 05:36:48;;;;;;;53.07;48.73;;;8.90;99.90;;;;;;4977808;28;20051;-76
2022/12/29 05:39:14;;;;;;;70.30;65.20;;;8.90;99.90;;;;;;4993030;28;20050;-74
2022/12/29 05:41:39;;;;;;;72.77;67.50;;;8.90;99.90;;;;;;4992297;28;20418;-76
2022/12/29 05:44:05;;;;;;;28.60;20.57;;;9.00;99.90;;;;;;4991904;28;20062;-76
2022/12/29 05:46:31;;;;;;;27.50;24.60;;;8.90;99.90;;;;;;4979122;28;20055;-76
2022/12/29 05:48:57;;;;;;;20.77;17.47;;;8.90;99.90;;;;;;4990005;28;20047;-76
2022/12/29 05:51:23;;;;;;;42.40;38.87;;;8.90;99.90;;;;;;4993199;28;20057;-77
2022/12/29 05:53:49;;;;;;;36.67;33.47;;;8.90;99.90;;;;;;4991540;28;20054;-76
2022/12/29 05:56:15;;;;;;;26.97;23.60;;;9.00;99.90;;;;;;4983726;28;20054;-76
2022/12/29 05:58:41;;;;;;;181.30;166.13;;;9.10;99.90;;;;;;4984817;28;20054;-76
2022/12/29 06:01:07;;;;;;;354.27;323.37;;;9.20;99.90;;;;;;5024679;28;20050;-76
2022/12/29 06:03:32;;;;;;;66.37;61.00;;;9.30;99.90;;;;;;4991228;28;20043;-76
2022/12/29 06:05:58;;;;;;;110.40;102.77;;;9.20;99.90;;;;;;4993080;28;20059;-75
2022/12/29 06:08:24;;;;;;;41.63;38.13;;;9.30;99.90;;;;;;5006535;28;20058;-76
2022/12/29 06:10:50;;;;;;;115.93;108.70;;;9.20;99.90;;;;;;4992829;28;20054;-76
2022/12/29 06:13:15;;;;;;;48.57;44.37;;;9.20;99.90;;;;;;4973556;28;20116;-76
2022/12/29 06:15:41;;;;;;;74.90;69.10;;;9.30;99.90;;;;;;4987688;28;20333;-77
2022/12/29 06:18:07;;;;;;;42.50;38.90;;;9.20;99.90;;;;;;4973639;28;20655;-76
2022/12/29 06:20:33;;;;;;;27.83;25.13;;;9.20;99.90;;;;;;4980955;28;20284;-75
2022/12/29 06:22:58;;;;;;;31.97;28.60;;;9.10;99.90;;;;;;4981616;28;20058;-76
2022/12/29 06:25:24;;;;;;;36.07;32.57;;;9.20;99.90;;;;;;4988124;28;20061;-76
2022/12/29 06:27:50;;;;;;;50.00;45.80;;;9.00;99.90;;;;;;4972999;28;20042;-75
2022/12/29 06:30:16;;;;;;;39.93;35.97;;;9.00;99.90;;;;;;4990727;28;20054;-75
2022/12/29 06:32:43;;;;;;;65.73;61.03;;;9.10;99.90;;;;;;4990865;28;20047;-77
2022/12/29 06:35:09;;;;;;;34.83;31.63;;;9.10;99.90;;;;;;4991796;28;20129;-75
2022/12/29 06:37:34;;;;;;;124.20;114.07;;;9.00;99.90;;;;;;4977008;28;20405;-75
2022/12/29 06:40:00;;;;;;;62.03;56.60;;;9.00;99.90;;;;;;4991945;28;20058;-76
2022/12/29 06:42:26;;;;;;;53.80;48.97;;;9.10;99.90;;;;;;4991482;28;20054;-76
2022/12/29 06:44:52;;;;;;;46.97;43.07;;;9.00;99.90;;;;;;5023099;28;20137;-75
2022/12/29 06:47:18;;;;;;;86.07;79.67;;;9.00;99.90;;;;;;4975411;28;20042;-76
2022/12/29 06:49:44;;;;;;;141.07;129.77;;;9.00;99.90;;;;;;4991668;28;20046;-76
2022/12/29 06:52:10;;;;;;;51.63;47.23;;;8.90;99.90;;;;;;4989754;28;20053;-76
2022/12/29 06:54:35;;;;;;;34.57;29.80;;;8.90;99.90;;;;;;4991420;28;20053;-76
2022/12/29 06:57:01;;;;;;;156.37;143.40;;;8.80;99.90;;;;;;4977218;28;20038;-75
2022/12/29 06:59:27;;;;;;;32.27;28.60;;;8.90;99.90;;;;;;4988451;28;20062;-77
2022/12/29 07:01:52;;;;;;;313.40;289.30;;;8.90;99.90;;;;;;4991649;28;20396;-76
2022/12/29 07:04:18;;;;;;;33.63;30.20;;;8.90;99.90;;;;;;4990337;28;20146;-76
2022/12/29 07:06:44;;;;;;;56.93;51.87;;;8.90;99.90;;;;;;4976824;28;20065;-76
2022/12/29 07:09:10;;;;;;;31.83;21.83;;;9.00;99.90;;;;;;4990500;28;20053;-75
2022/12/29 07:11:36;;;;;;;42.10;37.87;;;8.90;99.90;;;;;;4992106;28;20144;-75
2022/12/29 07:14:02;;;;;;;40.00;35.80;;;8.90;99.90;;;;;;4988206;28;20266;-76
2022/12/29 07:16:29;;;;;;;229.37;212.87;;;8.90;99.90;;;;;;4978448;28;20500;-75
2022/12/29 07:18:55;;;;;;;50.37;46.27;;;8.90;99.90;;;;;;4988377;28;20042;-76
2022/12/29 07:21:21;;;;;;;133.57;125.40;;;9.00;99.90;;;;;;4989819;28;20162;-76
2022/12/29 07:23:47;;;;;;;28.00;25.03;;;9.00;99.90;;;;;;4990078;28;20136;-76
2022/12/29 07:26:14;;;;;;;35.07;31.63;;;8.90;99.90;;;;;;4996140;28;20054;-76
2022/12/29 07:28:41;;;;;;;35.70;32.17;;;9.00;99.90;;;;;;5015610;28;20038;-77
2022/12/29 07:31:13;;;;;;;35.03;29.50;;;9.00;99.90;;;;;;4991002;28;20050;-75
2022/12/29 07:33:39;;;;;;;122.60;112.57;;;9.00;99.90;;;;;;5021592;28;20046;-75
2022/12/29 07:36:05;;;;;;;33.73;29.47;;;9.10;99.90;;;;;;4990982;28;20076;-75
2022/12/29 07:38:31;;;;;;;101.50;94.47;;;9.00;99.90;;;;;;4976969;28;20054;-76
2022/12/29 07:40:58;;;;;;;49.93;45.37;;;9.20;99.90;;;;;;4990997;28;20109;-75
2022/12/29 07:43:27;;;;;;;66.20;61.27;;;9.10;99.90;;;;;;4989893;28;20105;-75
2022/12/29 07:45:53;;;;;;;206.40;190.77;;;9.20;99.90;;;;;;4972754;28;20054;-75
2022/12/29 07:48:18;;;;;;;146.97;133.87;;;9.20;99.90;;;;;;4972866;28;20100;-76
2022/12/29 07:50:44;;;;;;;140.07;129.77;;;9.10;99.90;;;;;;4989598;28;20112;-77
2022/12/29 07:53:10;;;;;;;95.47;88.20;;;9.20;99.90;;;;;;4989435;28;20497;-75
2022/12/29 07:55:38;;;;;;;178.33;161.10;;;9.20;99.90;;;;;;4988903;28;20038;-76
2022/12/29 07:58:04;;;;;;;109.90;102.77;;;9.20;99.90;;;;;;4973495;28;20052;-75
2022/12/29 08:00:30;;;;;;;196.97;179.67;;;9.10;99.90;;;;;;4989192;28;20366;-76
2022/12/29 08:02:56;;;;;;;96.83;89.37;;;9.30;99.90;;;;;;4988378;28;20050;-76
2022/12/29 08:05:21;;;;;;;58.43;53.67;;;9.20;99.90;;;;;;4988900;28;20054;-75
2022/12/29 08:07:47;;;;;;;75.23;70.03;;;9.20;99.90;;;;;;4973215;28;20100;-76
2022/12/29 08:10:14;;;;;;;131.50;122.67;;;9.20;99.90;;;;;;4989900;28;20038;-75
2022/12/29 08:12:41;;;;;;;158.73;148.47;;;9.10;99.90;;;;;;4985897;28;20529;-76
2022/12/29 08:15:09;;;;;;;52.10;47.93;;;9.10;99.90;;;;;;4988436;28;20090;-75
2022/12/29 08:17:34;;;;;;;65.80;60.97;;;9.20;99.90;;;;;;4972157;28;20078;-75
2022/12/29 08:20:00;;;;;;;52.47;48.20;;;9.20;99.90;;;;;;4989058;28;20074;-75
2022/12/29 08:22:26;;;;;;;41.83;38.23;;;9.20;99.90;;;;;;4990813;28;20042;-77
2022/12/29 08:24:51;;;;;;;74.27;68.27;;;9.20;99.90;;;;;;5007395;28;20355;-76
2022/12/29 08:27:18;;;;;;;45.40;41.03;;;9.20;99.90;;;;;;4993041;28;20489;-76
2022/12/29 08:29:43;;;;;;;62.70;57.23;;;9.10;99.90;;;;;;5008372;28;20053;-76
2022/12/29 08:32:09;;;;;;;68.17;62.87;;;9.20;99.90;;;;;;5008580;28;20488;-76
2022/12/29 08:34:35;;;;;;;47.60;42.40;;;9.20;99.90;;;;;;5009618;28;20460;-76
2022/12/29 08:37:01;;;;;;;115.70;106.70;;;9.10;99.90;;;;;;4992712;28;20073;-76
2022/12/29 08:39:27;;;;;;;150.93;138.57;;;9.10;99.90;;;;;;5009536;28;20535;-75
2022/12/29 08:41:53;;;;;;;65.23;59.97;;;9.10;99.90;;;;;;5008237;28;20069;-78
2022/12/29 08:44:18;;;;;;;103.60;95.63;;;9.00;99.90;;;;;;5011364;28;20046;-76
2022/12/29 08:46:44;;;;;;;91.07;84.73;;;9.00;99.90;;;;;;4995834;28;20054;-75
2022/12/29 08:49:10;;;;;;;44.13;39.90;;;9.00;99.90;;;;;;5011772;28;20069;-76
2022/12/29 08:51:35;;;;;;;43.13;39.00;;;9.10;99.90;;;;;;5013307;28;20057;-75
2022/12/29 08:54:01;;;;;;;67.93;61.87;;;9.10;99.90;;;;;;5011243;28;20042;-76
2022/12/29 08:56:27;;;;;;;77.90;70.80;;;9.10;99.90;;;;;;5000230;28;20457;-76
2022/12/29 08:58:53;;;;;;;50.60;45.60;;;9.00;99.90;;;;;;5007927;28;20050;-75
2022/12/29 09:01:19;;;;;;;200.63;186.13;;;9.00;99.90;;;;;;5011067;28;20042;-76
2022/12/29 09:03:46;;;;;;;63.63;57.67;;;9.20;99.90;;;;;;5011969;28;20038;-75
2022/12/29 09:06:12;;;;;;;53.33;48.73;;;9.10;99.90;;;;;;5011852;28;20054;-75
2022/12/29 09:08:37;;;;;;;243.93;226.80;;;9.00;99.90;;;;;;4995791;28;20045;-75
2022/12/29 09:11:08;;;;;;;171.23;157.50;;;9.00;99.90;;;;;;5012018;28;20121;-76
2022/12/29 09:13:34;;;;;;;69.13;63.40;;;9.00;99.90;;;;;;5010234;28;20052;-75
2022/12/29 09:16:00;;;;;;;51.90;43.03;;;9.00;99.90;;;;;;5012696;28;20092;-75
2022/12/29 09:18:26;;;;;;;126.17;116.43;;;8.90;99.90;;;;;;4996431;28;20490;-75
2022/12/29 09:20:59;;;;;;;112.40;103.53;;;8.80;99.90;;;;;;5011751;28;20488;-76
2022/12/29 09:23:25;;;;;;;38.50;30.23;;;8.80;99.90;;;;;;5009837;28;20053;-75
2022/12/29 09:25:51;;;;;;;88.43;81.37;;;8.80;99.90;;;;;;5012340;28;20054;-75
2022/12/29 09:28:17;;;;;;;61.87;55.63;;;8.80;99.90;;;;;;4996508;28;20077;-75
2022/12/29 09:30:42;;;;;;;41.10;35.70;;;8.90;99.90;;;;;;5010683;28;20046;-75
2022/12/29 09:33:08;;;;;;;55.63;50.57;;;8.90;99.90;;;;;;5011741;28;20057;-75
2022/12/29 09:35:34;;;;;;;70.13;63.37;;;8.90;99.90;;;;;;5012235;28;20045;-75
2022/12/29 09:37:59;;;;;;;132.13;122.27;;;8.90;99.90;;;;;;4997745;28;20052;-75
2022/12/29 09:40:29;;;;;;;65.03;59.00;;;8.80;99.90;;;;;;5011087;28;20133;-75
2022/12/29 09:43:07;;;;;;;107.17;98.57;;;8.80;99.90;;;;;;5011723;28;20396;-75
2022/12/29 09:45:41;;;;;;;106.37;98.23;;;8.80;99.90;;;;;;5011057;28;20050;-75
2022/12/29 09:48:21;;;;;;;275.07;249.93;;;8.70;99.90;;;;;;4994336;28;20046;-75
2022/12/29 09:50:58;;;;;;;43.57;38.63;;;8.70;99.90;;;;;;5009862;28;20045;-76
2022/12/29 09:53:39;;;;;;;35.87;30.13;;;8.70;99.90;;;;;;5011337;28;20548;-75
2022/12/29 09:56:11;;;;;;;77.60;71.13;;;8.80;99.90;;;;;;5010881;28;20073;-77
2022/12/29 09:58:54;;;;;;;45.53;41.20;;;8.90;99.90;;;;;;5002974;28;20153;-77
2022/12/29 10:01:42;;;;;;;132.43;123.47;;;8.80;99.90;;;;;;5009241;28;20100;-78
2022/12/29 10:04:08;;;;;;;56.00;51.00;;;8.80;99.90;;;;;;5009918;28;20149;-75
2022/12/29 10:06:55;;;;;;;39.07;35.37;;;8.70;99.90;;;;;;4998180;28;20137;-75
2022/12/29 10:09:34;;;;;;;45.70;41.43;;;8.70;99.90;;;;;;5011238;28;20060;-75
2022/12/29 10:12:29;;;;;;;81.13;75.17;;;8.60;99.90;;;;;;5011736;28;20053;-76
2022/12/29 10:15:18;;;;;;;100.87;92.80;;;8.60;99.90;;;;;;4992393;28;20492;-75
2022/12/29 10:18:08;;;;;;;74.27;68.30;;;8.60;99.90;;;;;;4973688;28;20042;-74
2022/12/29 10:20:46;;;;;;;27.30;24.47;;;8.50;99.90;;;;;;4989028;28;20077;-75
2022/12/29 10:23:40;;;;;;;57.30;52.83;;;8.50;99.90;;;;;;4991198;28;20456;-75
2022/12/29 10:26:17;;;;;;;160.27;149.93;;;8.40;99.90;;;;;;4985818;28;20047;-78
2022/12/29 10:28:50;;;;;;;198.20;183.30;;;8.60;99.90;;;;;;5018294;28;20046;-75
2022/12/29 10:31:21;;;;;;;49.60;45.60;;;8.80;99.90;;;;;;4992072;28;20050;-75
2022/12/29 10:33:58;;;;;;;64.47;59.77;;;8.70;99.90;;;;;;5022872;28;20100;-75
2022/12/29 10:36:32;;;;;;;52.83;48.87;;;8.70;99.90;;;;;;5010761;28;20500;-76
2022/12/29 10:39:39;;;;;;;167.97;153.73;;;8.60;99.90;;;;;;4990293;28;20058;-76
2022/12/29 10:42:25;;;;;;;86.07;79.87;;;8.60;99.90;;;;;;4988308;28;20524;-75
2022/12/29 10:44:51;;;;;;;104.33;95.97;;;8.50;99.90;;;;;;5023051;28;20054;-77
2022/12/29 10:47:25;;;;;;;226.43;209.13;;;8.60;99.90;;;;;;4975587;28;20062;-76
2022/12/29 10:49:51;;;;;;;192.97;178.07;;;8.70;99.90;;;;;;5023514;28;20057;-75
2022/12/29 10:52:20;;;;;;;170.97;157.90;;;8.80;99.90;;;;;;5022777;28;20046;-75
2022/12/29 10:54:53;;;;;;;212.00;193.90;;;8.70;99.90;;;;;;4991687;28;20097;-75
2022/12/29 10:57:33;;;;;;;44.07;36.53;;;8.70;99.90;;;;;;4974399;28;20240;-75
2022/12/29 10:59:59;;;;;;;38.70;27.77;;;8.70;99.90;;;;;;4991763;28;20054;-75
2022/12/29 11:03:09;;;;;;;46.73;33.37;;;8.70;99.90;;;;;;4990960;28;20097;-75
2022/12/29 11:05:53;;;;;;;42.50;28.43;;;8.70;99.90;;;;;;5022447;28;20061;-75
2022/12/29 11:08:24;;;;;;;50.03;37.13;;;8.70;99.90;;;;;;5006584;28;20046;-75
2022/12/29 11:11:08;;;;;;;114.55;105.55;;;8.70;99.90;;;;;;5023168;28;20038;-75
2022/12/29 11:13:49;;;;;;;45.37;33.77;;;8.70;99.90;;;;;;5021815;28;20053;-75
2022/12/29 11:16:26;;;;;;;42.55;30.80;;;8.70;99.90;;;;;;4981991;28;20054;-76
2022/12/29 11:18:52;;;;;;;40.10;33.53;;;8.70;99.90;;;;;;4987754;28;20043;-75
2022/12/29 11:21:32;;;;;;;55.53;50.10;;;8.70;99.90;;;;;;5006377;28;20058;-75
2022/12/29 11:24:03;;;;;;;53.20;44.23;;;8.70;99.90;;;;;;4977205;28;20054;-75
2022/12/29 11:26:31;;;;;;;126.45;116.43;;;8.80;99.90;;;;;;4959434;28;20645;-75
2022/12/29 11:29:16;;;;;;;76.60;69.90;;;8.80;99.90;;;;;;4969369;28;20125;-77
2022/12/29 11:31:43;;;;;;;90.33;82.20;;;8.70;99.90;;;;;;4971559;28;20046;-76
2022/12/29 11:34:21;;;;;;;47.37;36.63;;;8.90;99.90;;;;;;4969425;28;20287;-75
2022/12/29 11:36:48;;;;;;;51.50;41.67;;;8.80;99.90;;;;;;4973532;28;20078;-75
2022/12/29 11:39:32;;;;;;;53.00;46.20;;;8.80;99.90;;;;;;4989875;28;20054;-75
2022/12/29 11:41:59;;;;;;;46.00;39.87;;;8.80;99.90;;;;;;4990481;28;20401;-75
2022/12/29 11:44:26;;;;;;;39.40;32.70;;;8.80;99.90;;;;;;5009150;28;20396;-77
2022/12/29 11:46:53;;;;;;;46.37;41.30;;;8.80;99.90;;;;;;4993087;28;20479;-77
2022/12/29 11:49:22;;;;;;;55.43;49.97;;;8.70;99.90;;;;;;5009300;28;20161;-75
2022/12/29 11:51:51;;;;;;;101.53;93.00;;;8.90;99.90;;;;;;5009628;28;20297;-75
2022/12/29 11:54:22;;;;;;;39.83;33.23;;;8.90;99.90;;;;;;5009548;28;20107;-76
2022/12/29 11:56:49;;;;;;;109.72;95.32;;;8.80;99.90;;;;;;4994382;28;20046;-75
2022/12/29 11:59:27;;;;;;;54.33;48.73;;;8.80;99.90;;;;;;4991941;28;20066;-75
2022/12/29 12:01:54;;;;;;;84.20;77.20;;;8.80;99.90;;;;;;5010293;28;20046;-75
2022/12/29 12:04:24;;;;;;;124.83;115.77;;;8.80;99.90;;;;;;5007610;28;20042;-75
2022/12/29 12:07:00;;;;;;;42.47;38.08;;;8.70;99.90;;;;;;4992557;28;20088;-75
2022/12/29 12:09:32;;;;;;;58.10;52.53;;;8.80;99.90;;;;;;5007889;28;20140;-76
2022/12/29 12:12:00;;;;;;;72.23;66.23;;;9.00;99.90;;;;;;5009351;28;20126;-75
2022/12/29 12:14:43;;;;;;;36.43;25.17;;;8.90;99.90;;;;;;5007893;28;20042;-76
2022/12/29 12:17:11;;;;;;;164.97;151.20;;;8.90;99.90;;;;;;4991459;28;20088;-76
2022/12/29 12:19:59;;;;;;;62.17;56.90;;;9.00;99.90;;;;;;4992455;28;20057;-75
2022/12/29 12:22:42;;;;;;;45.23;41.13;;;9.10;99.90;;;;;;5007785;28;20100;-75
2022/12/29 12:25:16;;;;;;;58.50;53.73;;;9.10;99.90;;;;;;4983180;28;20057;-76
2022/12/29 12:27:52;;;;;;;286.17;259.87;;;9.30;99.90;;;;;;4993311;28;20052;-76
2022/12/29 12:30:22;;;;;;;53.23;49.27;;;9.50;99.90;;;;;;5009724;28;20081;-76
2022/12/29 12:33:18;;;;;;;134.38;121.50;;;9.60;99.90;;;;;;5007822;28;20042;-75
2022/12/29 12:35:43;;;;;;;23.93;16.70;;;9.40;99.90;;;;;;4977778;28;20576;-76
2022/12/29 12:38:23;;;;;;;47.77;44.03;;;9.30;99.90;;;;;;4974850;28;20136;-75
2022/12/29 12:40:59;;;;;;;38.77;35.70;;;9.20;99.90;;;;;;4989823;28;20472;-75
2022/12/29 12:43:44;;;;;;;170.33;156.70;;;9.10;99.90;;;;;;4999027;28;20050;-75
2022/12/29 12:46:28;;;;;;;57.23;52.93;;;9.10;99.90;;;;;;5000985;28;20050;-76
2022/12/29 12:49:08;;;;;;;55.40;51.37;;;9.10;99.90;;;;;;4984743;28;20053;-75
2022/12/29 12:52:02;;;;;;;32.67;29.50;;;9.10;99.90;;;;;;4990031;28;20100;-76
2022/12/29 12:55:06;;;;;;;68.70;63.50;;;9.00;99.90;;;;;;4989584;28;20308;-75
2022/12/29 12:57:56;;;;;;;24.40;17.97;;;9.10;99.90;;;;;;4972201;28;20389;-76
2022/12/29 13:00:23;;;;;;;30.88;27.80;;;9.20;99.90;;;;;;4989437;28;20492;-75
2022/12/29 13:03:17;;;;;;;59.10;54.50;;;9.30;99.90;;;;;;4988933;28;20476;-75
2022/12/29 13:06:26;;;;;;;70.37;65.23;;;9.30;99.90;;;;;;4988814;28;20121;-75
2022/12/29 13:08:54;;;;;;;52.53;48.43;;;9.20;99.90;;;;;;4985905;28;20135;-75
2022/12/29 13:11:51;;;;;;;60.30;55.97;;;9.20;99.90;;;;;;5006902;28;20496;-76
2022/12/29 13:14:35;;;;;;;45.33;41.63;;;9.20;99.90;;;;;;5008409;28;20084;-75
2022/12/29 13:17:36;;;;;;;121.63;112.10;;;9.10;99.90;;;;;;4992705;28;20054;-76
2022/12/29 13:20:16;;;;;;;71.35;66.10;;;9.10;99.90;;;;;;4976940;28;20053;-76
2022/12/29 13:22:53;;;;;;;49.37;45.27;;;9.00;99.90;;;;;;5007761;28;20156;-75
2022/12/29 13:25:28;;;;;;;35.97;32.93;;;9.00;99.90;;;;;;5000525;28;20424;-76
2022/12/29 13:28:09;;;;;;;49.07;45.63;;;9.00;99.90;;;;;;4991076;28;20428;-75
2022/12/29 13:30:57;;;;;;;32.85;29.75;;;8.90;99.90;;;;;;5011496;28;20050;-77